Terminal Aerodrome Forecast
Issued by NWS Blacksburg, VA

Home | Current Version | Previous Version | Text Only | Print | Product List | Glossary On
Versions: 1 2 3 4 5 6 7 8 9 10 11 12 13 14 15 16 17 18 19 20 21 22 23 24 25 26 27 28 29 30 31 32 33 34 35 36 37 38 39 40 41 42 43 44 45 46 47 48 49 50
567
FTUS41 KRNK 050208 AAB
TAFBLF
TAF AMD
KBLF 050208Z 0502/0524 29009KT P6SM -SHRA BKN020 OVC070
     FM050500 28006KT 4SM -SHRA BR OVC012
     FM051100 29008KT P6SM VCSH OVC015
     FM051800 30012G20KT 6SM -SHRA OVC009=

USA.gov is the U.S. government's official web portal to all federal, state and local government web resources and services.